Time;durP1;ratioP1;P1;durP2;ratioP2;P2;SDS_P1;SDS_P2;PMS_P1;PMS_P2;Temp;Humidity;BMP_temperature;BMP_pressure;BME280_temperature;BME280_humidity;BME280_pressure;Samples;Min_cycle;Max_cycle;Signal;HPM_P1;HPM_P2
2022/04/02 00:01:13;;;;;;;14.47;10.93;;;0.80;99.90;;;1.24;74.66;96430.22;5026235;28;20053;-40
2022/04/02 00:03:41;;;;;;;16.10;11.03;;;0.80;99.90;;;1.18;75.20;96438.56;5026157;28;20049;-40
2022/04/02 00:06:10;;;;;;;17.93;11.63;;;0.80;99.90;;;1.21;75.21;96437.50;5026058;28;20055;-40
2022/04/02 00:08:38;;;;;;;15.47;11.50;;;0.80;99.90;;;1.09;74.70;96439.38;5025948;28;20064;-40
2022/04/02 00:11:07;;;;;;;16.70;11.93;;;0.70;99.90;;;1.03;75.03;96440.75;5025505;28;20068;-40
2022/04/02 00:13:35;;;;;;;17.27;10.23;;;0.60;99.90;;;0.94;75.60;96428.41;5025962;28;20432;-40
2022/04/02 00:16:04;;;;;;;15.17;10.93;;;0.60;99.90;;;0.97;75.62;96429.00;5025459;28;20516;-40
2022/04/02 00:18:32;;;;;;;16.63;11.63;;;0.60;99.90;;;1.02;75.51;96440.88;5026214;28;20243;-39
2022/04/02 00:21:00;;;;;;;15.53;11.27;;;0.60;99.90;;;1.04;75.03;96436.31;5027532;28;20278;-40
2022/04/02 00:23:40;;;;;;;20.17;11.83;;;0.70;99.90;;;1.08;75.68;96435.09;5029084;28;20362;-40
2022/04/02 00:26:15;;;;;;;14.97;11.33;;;0.70;99.90;;;1.04;74.99;96434.53;5029928;28;20048;-40
2022/04/02 00:28:44;;;;;;;16.27;11.17;;;0.70;99.90;;;0.94;75.06;96433.66;5030085;28;20059;-40
2022/04/02 00:31:13;;;;;;;16.57;11.77;;;0.60;99.90;;;0.96;75.73;96429.94;5028482;28;20053;-40
2022/04/02 00:33:45;;;;;;;16.37;11.23;;;0.60;99.90;;;1.03;75.80;96430.25;5028726;28;20064;-39
2022/04/02 00:36:14;;;;;;;15.03;10.30;;;0.70;99.90;;;1.05;74.93;96433.56;5030418;28;20263;-40
2022/04/02 00:38:42;;;;;;;15.40;10.67;;;0.70;99.90;;;1.04;75.76;96431.91;5029589;28;20050;-40
2022/04/02 00:41:13;;;;;;;16.10;11.20;;;0.70;99.90;;;0.97;74.79;96434.22;5029075;28;20340;-40
2022/04/02 00:44:08;;;;;;;15.23;11.97;;;0.70;99.90;;;1.07;75.26;96433.44;5029214;28;20049;-40
2022/04/02 00:46:36;;;;;;;;;;;0.70;99.90;;;1.14;74.71;96430.16;5029415;28;20367;-40
2022/04/02 00:49:07;;;;;;;13.90;11.00;;;0.80;99.90;;;1.16;74.76;96437.88;5028990;28;19925;-40
2022/04/02 00:51:41;;;;;;;15.27;11.43;;;0.80;99.90;;;1.15;75.07;96429.19;5026749;28;20081;-40
2022/04/02 00:54:17;;;;;;;15.57;11.23;;;0.90;99.90;;;1.16;74.83;96436.09;5028307;28;20057;-40
2022/04/02 00:56:45;;;;;;;21.43;12.10;;;0.90;99.90;;;1.22;75.11;96432.09;5029841;28;20075;-40
2022/04/02 00:59:15;;;;;;;16.63;10.87;;;0.90;99.90;;;1.34;74.82;96438.09;5027648;28;20061;-40
2022/04/02 01:01:45;;;;;;;16.00;10.90;;;1.00;99.90;;;1.34;74.70;96438.91;5027516;28;20046;-40
2022/04/02 01:04:13;;;;;;;15.40;10.97;;;1.10;99.90;;;1.34;75.14;96438.09;5026771;28;20259;-40
2022/04/02 01:06:45;;;;;;;13.40;10.30;;;1.00;99.90;;;1.27;74.62;96435.16;5028076;28;20057;-40
2022/04/02 01:09:19;;;;;;;14.83;9.33;;;0.90;99.90;;;1.28;75.15;96434.22;5027701;28;20063;-40
2022/04/02 01:11:54;;;;;;;12.73;9.73;;;0.90;99.90;;;1.27;74.71;96437.78;5028933;28;20048;-40
2022/04/02 01:14:23;;;;;;;15.87;11.27;;;0.90;99.90;;;1.27;74.73;96434.34;5011658;28;20254;-40
2022/04/02 01:16:56;;;;;;;16.53;10.93;;;0.80;99.90;;;1.25;74.97;96441.50;5027107;28;20053;-40
2022/04/02 01:19:26;;;;;;;15.27;10.77;;;0.90;99.90;;;1.21;74.29;96432.25;5027129;28;20084;-40
2022/04/02 01:22:04;;;;;;;14.83;10.23;;;0.80;99.90;;;1.17;74.42;96443.00;5026695;28;20290;-40
2022/04/02 01:24:42;;;;;;;14.33;10.43;;;0.80;99.90;;;1.26;74.42;96440.53;5027801;28;20060;-40
2022/04/02 01:27:11;;;;;;;13.23;9.97;;;0.90;99.90;;;1.31;74.68;96443.59;5027217;28;20356;-40
2022/04/02 01:29:41;;;;;;;17.13;10.40;;;1.00;99.90;;;1.31;74.49;96446.22;5026374;28;20045;-40
2022/04/02 01:32:11;;;;;;;15.30;10.00;;;1.00;99.90;;;1.35;74.24;96448.44;5026278;28;20056;-40
2022/04/02 01:34:42;;;;;;;14.33;10.13;;;1.00;99.90;;;1.34;74.50;96446.78;5027283;28;20232;-40
2022/04/02 01:37:17;;;;;;;14.77;9.50;;;1.00;99.90;;;1.43;74.43;96450.38;5026249;28;20049;-40
2022/04/02 01:39:50;;;;;;;;;;;1.10;99.90;;;1.42;74.00;96447.94;5027430;28;20045;-40
2022/04/02 01:42:24;;;;;;;15.67;11.00;;;1.20;99.90;;;1.44;73.97;96451.25;5026922;28;19931;-40
2022/04/02 01:45:01;;;;;;;13.23;9.47;;;1.10;99.90;;;1.52;74.55;96454.03;5026862;28;20053;-40
2022/04/02 01:47:42;;;;;;;13.60;9.20;;;1.20;99.90;;;1.56;74.57;96456.22;5026976;28;20064;-40
2022/04/02 01:50:12;;;;;;;13.57;9.33;;;1.30;99.90;;;1.59;74.50;96455.16;5026652;28;20372;-39
2022/04/02 01:52:45;;;;;;;14.00;7.77;;;1.30;99.90;;;1.47;74.17;96445.72;5027138;28;20355;-39
2022/04/02 01:55:17;;;;;;;12.73;8.93;;;1.10;99.90;;;1.47;74.08;96448.34;5026598;28;20057;-40
2022/04/02 01:57:51;;;;;;;12.00;8.37;;;1.10;99.90;;;1.49;74.36;96449.03;5027652;28;20273;-40
2022/04/02 02:00:28;;;;;;;13.13;9.00;;;1.10;99.90;;;1.49;73.80;96455.13;5024474;28;20666;-40
2022/04/02 02:02:57;;;;;;;15.13;8.70;;;1.20;99.90;;;1.44;73.79;96451.25;5026347;28;20053;-40
2022/04/02 02:05:26;;;;;;;12.50;8.67;;;1.10;99.90;;;1.41;74.20;96454.13;5028962;28;20053;-40
2022/04/02 02:07:55;;;;;;;13.00;9.20;;;1.10;99.90;;;1.38;74.20;96455.22;5010676;28;20053;-40
2022/04/02 02:10:43;;;;;;;12.87;9.47;;;1.10;99.90;;;1.32;74.39;96458.38;5027063;28;20278;-40
2022/04/02 02:13:30;;;;;;;11.47;9.10;;;1.00;99.90;;;1.15;73.73;96459.84;5025769;28;20229;-40
2022/04/02 02:16:03;;;;;;;15.20;9.50;;;0.80;99.90;;;1.21;73.51;96467.16;5010680;28;20065;-40
2022/04/02 02:18:34;;;;;;;11.57;8.30;;;0.80;99.90;;;1.09;74.68;96466.44;5025653;28;20064;-40
2022/04/02 02:21:02;;;;;;;14.23;9.33;;;0.80;99.90;;;1.18;74.61;96470.03;5027120;28;20057;-40
2022/04/02 02:23:30;;;;;;;13.50;7.70;;;0.80;99.90;;;1.05;74.52;96459.78;5041924;28;20075;-40
2022/04/02 02:25:58;;;;;;;13.27;8.90;;;0.80;99.90;;;1.11;73.86;96471.53;5027642;28;20111;-40
2022/04/02 02:28:26;;;;;;;11.17;7.47;;;0.90;99.90;;;1.17;74.25;96466.59;5025521;28;20384;-40
2022/04/02 02:30:58;;;;;;;11.47;7.60;;;0.90;99.90;;;1.07;73.90;96467.53;5024909;28;20053;-40
2022/04/02 02:36:17;;;;;;;8.70;6.90;;;0.80;99.90;;;1.13;73.88;96480.94;5012461;28;20064;-40
2022/04/02 02:38:56;;;;;;;11.47;7.13;;;0.90;99.90;;;1.12;74.09;96479.25;5025119;28;20067;-40
2022/04/02 02:41:36;;;;;;;11.90;7.43;;;0.90;99.90;;;1.13;74.23;96491.41;5027778;28;20061;-39
2022/04/02 02:44:07;;;;;;;12.30;7.53;;;1.00;99.90;;;1.12;73.80;96484.50;5024526;28;20048;-40
2022/04/02 02:46:44;;;;;;;10.50;6.80;;;1.00;99.90;;;1.17;73.71;96487.56;5026333;28;20350;-40
2022/04/02 02:49:19;;;;;;;11.70;7.83;;;1.10;99.90;;;1.26;73.97;96485.09;5027391;28;20064;-40
2022/04/02 02:51:50;;;;;;;7.93;5.80;;;1.10;99.90;;;1.14;73.29;96482.59;5025819;28;20378;-40
2022/04/02 02:54:23;;;;;;;10.90;6.93;;;1.10;99.90;;;1.11;73.04;96484.66;5026292;28;20270;-40
2022/04/02 02:56:53;;;;;;;9.13;7.37;;;1.00;99.90;;;1.09;73.50;96484.78;5026997;28;20213;-40
2022/04/02 02:59:21;;;;;;;14.27;7.20;;;1.10;99.90;;;1.11;73.08;96485.47;5025787;28;20352;-40
2022/04/02 03:01:49;;;;;;;9.00;6.10;;;1.00;99.90;;;1.05;73.03;96493.88;5023736;28;20063;-40
2022/04/02 03:04:20;;;;;;;11.00;6.83;;;0.90;99.90;;;1.02;72.97;96490.66;5042574;28;20239;-40
2022/04/02 03:06:50;;;;;;;9.33;6.80;;;0.90;99.90;;;1.06;73.63;96497.31;5026450;28;20264;-40
2022/04/02 03:09:20;;;;;;;13.03;7.13;;;0.90;99.90;;;1.04;73.71;96496.59;5028434;28;20038;-40
2022/04/02 03:11:49;;;;;;;10.80;7.40;;;0.90;99.90;;;1.04;73.29;96491.38;5025876;28;20045;-40
2022/04/02 03:14:19;;;;;;;10.73;7.40;;;0.90;99.90;;;1.10;73.31;96489.03;5009205;28;20057;-40
2022/04/02 03:16:46;;;;;;;11.23;6.50;;;1.00;99.90;;;1.07;73.12;96505.03;5025752;28;20056;-40
2022/04/02 03:19:17;;;;;;;9.93;6.97;;;0.90;99.90;;;1.11;73.19;96500.38;5024624;28;20259;-40
2022/04/02 03:21:51;;;;;;;11.30;7.30;;;0.90;99.90;;;1.11;73.82;96503.81;5009392;28;20067;-40
2022/04/02 03:24:19;;;;;;;9.97;7.03;;;0.80;99.90;;;0.91;72.69;96500.28;5026062;28;20049;-40
2022/04/02 03:26:47;;;;;;;11.67;8.13;;;0.70;99.90;;;1.10;73.59;96506.56;5027551;28;20065;-40
2022/04/02 03:29:30;;;;;;;10.02;7.18;;;0.80;99.90;;;1.05;73.69;96500.88;5024500;28;20510;-39
2022/04/02 03:32:03;;;;;;;11.17;7.87;;;0.90;99.90;;;1.02;73.28;96509.84;5024914;28;20049;-39
2022/04/02 03:34:33;;;;;;;12.40;8.20;;;0.70;99.90;;;0.98;73.71;96513.69;5008782;28;20408;-39
2022/04/02 03:37:01;;;;;;;12.07;8.20;;;0.70;99.90;;;0.83;73.30;96512.34;5027739;28;20389;-39
2022/04/02 03:39:31;;;;;;;14.10;9.30;;;0.60;99.90;;;0.81;74.20;96516.88;5009458;28;20061;-39
2022/04/02 03:41:59;;;;;;;14.17;8.73;;;0.50;99.90;;;0.87;73.79;96521.59;5024985;28;20063;-39
2022/04/02 03:44:27;;;;;;;11.80;9.40;;;0.60;99.90;;;0.90;73.66;96522.19;5024272;28;20060;-39
2022/04/02 03:47:11;;;;;;;15.67;9.90;;;0.60;99.90;;;0.85;74.09;96526.97;5026918;28;20270;-40
2022/04/02 03:49:53;;;;;;;13.40;8.48;;;0.60;99.90;;;0.88;74.24;96525.91;5040690;28;20053;-39
2022/04/02 03:52:40;;;;;;;16.00;9.00;;;0.50;99.90;;;0.91;74.62;96525.63;5026541;28;20068;-39
2022/04/02 03:55:13;;;;;;;14.15;9.45;;;0.60;99.90;;;0.96;74.10;96528.72;5023579;28;20059;-40
2022/04/02 03:57:47;;;;;;;14.87;9.70;;;0.70;99.90;;;0.92;74.41;96528.13;5008467;28;20063;-39
2022/04/02 04:00:19;;;;;;;12.77;8.80;;;0.60;99.90;;;0.84;74.21;96527.13;5024355;28;20261;-39
2022/04/02 04:02:57;;;;;;;13.80;10.23;;;0.60;99.90;;;0.74;74.56;96530.50;5023911;28;20072;-39
2022/04/02 04:05:29;;;;;;;15.57;9.90;;;0.40;99.90;;;0.86;74.19;96538.31;5026546;28;20044;-39
2022/04/02 04:08:00;;;;;;;14.23;9.67;;;0.50;99.90;;;0.74;74.00;96537.53;5024617;28;20263;-39
2022/04/02 04:10:30;;;;;;;15.10;10.83;;;0.40;99.90;;;0.76;74.25;96546.09;5024812;28;20045;-39
2022/04/02 04:12:58;;;;;;;14.50;10.27;;;0.40;99.90;;;0.82;74.29;96542.97;5009099;28;20053;-39
2022/04/02 04:15:30;;;;;;;14.07;9.37;;;0.60;99.90;;;0.89;74.67;96540.66;5024624;28;20072;-39
2022/04/02 04:18:01;;;;;;;12.87;10.33;;;0.60;99.90;;;0.92;74.41;96546.47;5024347;28;20053;-39
2022/04/02 04:20:32;;;;;;;15.03;10.13;;;0.60;99.90;;;0.94;74.27;96551.59;5024155;28;20054;-39
2022/04/02 04:23:01;;;;;;;14.77;9.77;;;0.70;99.90;;;0.87;74.30;96545.19;5023908;28;20241;-39
2022/04/02 04:25:30;;;;;;;17.07;9.27;;;0.50;99.90;;;0.71;74.14;96551.69;5023825;28;20060;-39
2022/04/02 04:28:01;;;;;;;16.80;11.57;;;0.40;99.90;;;0.73;74.33;96554.19;5025913;28;20052;-39
2022/04/02 04:30:31;;;;;;;13.23;10.03;;;0.40;99.90;;;0.76;74.16;96567.06;5025298;28;20057;-39
2022/04/02 04:32:59;;;;;;;16.07;10.90;;;0.40;99.90;;;0.71;74.46;96558.75;5024233;28;20291;-39
2022/04/02 04:35:30;;;;;;;15.77;10.63;;;0.40;99.90;;;0.67;74.71;96562.56;5025909;28;20053;-39
2022/04/02 04:37:58;;;;;;;17.40;11.77;;;0.40;99.90;;;0.63;74.37;96556.75;5026510;28;20373;-39
2022/04/02 04:40:29;;;;;;;16.13;10.47;;;0.30;99.90;;;0.52;75.23;96555.00;5024893;28;20135;-39
2022/04/02 04:42:58;;;;;;;15.80;10.67;;;0.20;99.90;;;0.52;75.49;96559.41;5007649;28;20049;-39
2022/04/02 04:45:39;;;;;;;13.83;9.63;;;0.30;99.90;;;0.47;75.53;96561.59;5024389;28;20057;-39
2022/04/02 04:48:08;;;;;;;14.90;10.00;;;0.30;99.90;;;0.47;75.14;96575.50;5040545;28;20067;-39
2022/04/02 04:50:47;;;;;;;16.50;10.20;;;0.20;99.90;;;0.45;74.97;96573.97;5024852;28;20052;-39
2022/04/02 04:53:15;;;;;;;14.17;9.73;;;0.20;99.90;;;0.52;75.13;96575.94;5023564;28;20057;-39
2022/04/02 04:55:43;;;;;;;14.70;9.33;;;0.30;99.90;;;0.52;75.18;96582.97;5023633;28;20057;-40
2022/04/02 04:58:15;;;;;;;16.60;9.27;;;0.30;99.90;;;0.55;75.85;96580.13;5008632;28;20071;-40
2022/04/02 05:00:44;;;;;;;14.10;9.43;;;0.30;99.90;;;0.57;75.15;96579.03;5008061;28;20057;-39
2022/04/02 05:03:13;;;;;;;13.23;9.17;;;0.30;99.90;;;0.54;75.80;96576.69;5023725;28;20061;-39
2022/04/02 05:05:47;;;;;;;15.27;10.10;;;0.30;99.90;;;0.50;75.41;96587.50;5023731;28;20053;-40
2022/04/02 05:08:21;;;;;;;11.87;8.73;;;0.20;99.90;;;0.52;75.31;96585.59;5009484;28;20079;-39
2022/04/02 05:10:51;;;;;;;12.47;8.40;;;0.30;99.90;;;0.43;75.80;96587.19;5027435;28;20049;-39
2022/04/02 05:13:24;;;;;;;12.07;9.13;;;0.20;99.90;;;0.43;75.88;96594.19;5012365;28;20052;-39
2022/04/02 05:15:55;;;;;;;13.63;7.20;;;0.20;99.90;;;0.41;75.84;96596.97;5028091;28;20063;-40
2022/04/02 05:18:26;;;;;;;11.20;8.20;;;0.20;99.90;;;0.34;75.44;96588.75;5026507;28;20268;-40
2022/04/02 05:20:56;;;;;;;9.77;7.43;;;0.10;99.90;;;0.36;76.05;96597.31;5010661;28;20072;-40
2022/04/02 05:23:25;;;;;;;9.37;7.07;;;0.20;99.90;;;0.38;75.51;96602.44;5029353;28;20055;-40
2022/04/02 05:25:55;;;;;;;10.43;7.60;;;0.20;99.90;;;0.39;76.20;96604.13;5026291;28;20057;-40
2022/04/02 05:28:27;;;;;;;11.93;9.10;;;0.20;99.90;;;0.30;76.16;96605.66;5026921;28;20060;-41
2022/04/02 05:30:56;;;;;;;13.37;8.93;;;0.10;99.90;;;0.25;75.95;96610.44;5027221;28;20439;-39
2022/04/02 05:33:24;;;;;;;9.60;8.10;;;0.10;99.90;;;0.17;76.50;96600.56;5027335;28;20041;-39
2022/04/02 05:36:09;;;;;;;15.50;8.60;;;0.10;99.90;;;0.30;76.52;96615.31;5027920;28;20371;-40
2022/04/02 05:38:37;;;;;;;11.93;8.83;;;0.10;99.90;;;0.32;76.38;96618.63;5027024;28;20132;-40
2022/04/02 05:41:04;;;;;;;10.03;7.53;;;0.10;99.90;;;0.27;76.49;96619.03;5027008;28;20057;-42
2022/04/02 05:43:33;;;;;;;9.07;7.37;;;0.10;99.90;;;0.23;75.77;96619.38;5026572;28;20470;-40
2022/04/02 05:46:00;;;;;;;11.93;8.33;;;0.00;99.90;;;0.42;76.48;96630.03;5027650;28;20057;-40
2022/04/02 05:48:30;;;;;;;10.63;7.60;;;0.20;99.90;;;0.44;76.22;96632.53;5028351;28;20047;-40
2022/04/02 05:50:58;;;;;;;10.40;7.53;;;0.30;99.90;;;0.56;76.54;96632.41;5026533;28;20042;-40
2022/04/02 05:53:26;;;;;;;10.63;7.17;;;0.30;99.90;;;0.48;75.86;96633.94;5026543;28;20053;-40
2022/04/02 05:55:54;;;;;;;10.47;7.70;;;0.30;99.90;;;0.52;76.04;96645.84;5027628;28;20340;-40
2022/04/02 05:58:23;;;;;;;12.33;6.70;;;0.30;99.90;;;0.49;75.22;96648.72;5027618;28;20059;-40
2022/04/02 06:00:51;;;;;;;10.40;6.97;;;0.30;99.90;;;0.51;75.65;96646.81;5029306;28;20071;-39
2022/04/02 06:03:20;;;;;;;9.70;6.43;;;0.30;99.90;;;0.42;75.87;96645.75;5027307;28;20251;-41
2022/04/02 06:05:49;;;;;;;13.90;8.63;;;0.20;99.90;;;0.44;76.13;96649.06;5027085;28;20049;-40
2022/04/02 06:08:17;;;;;;;13.30;10.03;;;0.20;99.90;;;0.59;75.16;96654.88;5025716;28;20045;-40
2022/04/02 06:10:45;;;;;;;11.43;7.63;;;0.30;99.90;;;0.47;75.42;96654.06;5028323;28;20050;-40
2022/04/02 06:13:14;;;;;;;9.43;6.67;;;0.30;99.90;;;0.37;75.33;96661.00;5027935;28;20049;-40
2022/04/02 06:15:43;;;;;;;9.30;6.57;;;0.20;99.90;;;0.41;75.52;96656.34;5026905;28;20381;-40
2022/04/02 06:18:12;;;;;;;10.17;6.63;;;0.20;99.90;;;0.24;76.15;96655.09;5029002;28;20056;-40
2022/04/02 06:20:41;;;;;;;10.93;7.83;;;0.00;99.90;;;0.29;76.05;96664.25;5028871;28;20797;-40
2022/04/02 06:23:08;;;;;;;8.83;7.00;;;0.10;99.90;;;0.34;76.27;96667.31;5028556;28;20058;-40
2022/04/02 06:25:37;;;;;;;9.77;7.10;;;0.10;99.90;;;0.34;75.91;96664.69;5026695;28;20053;-40
2022/04/02 06:28:05;;;;;;;9.37;6.97;;;0.20;99.90;;;0.32;76.47;96669.22;5027675;28;20231;-40
2022/04/02 06:30:33;;;;;;;11.87;7.93;;;0.10;99.90;;;0.26;76.39;96671.50;5009981;28;20055;-40
2022/04/02 06:33:02;;;;;;;11.60;8.20;;;0.10;99.90;;;0.39;76.10;96677.44;5026533;28;20145;-41
2022/04/02 06:35:31;;;;;;;10.53;7.53;;;0.20;99.90;;;0.52;76.12;96680.72;5027953;28;20055;-40
2022/04/02 06:37:58;;;;;;;10.73;7.60;;;0.40;99.90;;;0.55;76.29;96680.47;5026428;28;20061;-40
2022/04/02 06:40:27;;;;;;;9.83;7.43;;;0.40;99.90;;;0.59;75.92;96688.94;5027557;28;20061;-40
2022/04/02 06:42:58;;;;;;;10.07;7.40;;;0.40;99.90;;;0.53;76.00;96698.09;5009862;28;20263;-40
2022/04/02 06:45:52;;;;;;;8.37;6.20;;;0.30;99.90;;;0.43;75.73;96685.84;5024452;28;20053;-40
2022/04/02 06:48:20;;;;;;;9.17;6.67;;;0.20;99.90;;;0.44;75.48;96692.78;5026953;28;20079;-40
2022/04/02 06:50:48;;;;;;;16.53;10.07;;;0.30;99.90;;;0.50;75.54;96698.34;5027559;28;20177;-41
2022/04/02 06:53:16;;;;;;;12.93;8.57;;;0.40;99.90;;;0.50;76.20;96708.81;5027990;28;20047;-41
2022/04/02 06:55:45;;;;;;;13.10;8.90;;;0.40;99.90;;;0.41;76.33;96706.09;5026610;28;20053;-41
2022/04/02 06:58:34;;;;;;;12.97;8.17;;;0.30;99.90;;;0.44;76.02;96714.53;5028386;28;20063;-40
2022/04/02 07:01:02;;;;;;;12.80;7.93;;;0.40;99.90;;;0.51;76.58;96707.88;5025741;28;20049;-41
2022/04/02 07:03:30;;;;;;;11.00;7.77;;;0.40;99.90;;;0.52;75.82;96719.19;5024684;28;20049;-40
2022/04/02 07:05:59;;;;;;;10.37;7.43;;;0.40;99.90;;;0.33;76.03;96717.16;5026714;28;20248;-41
2022/04/02 07:08:27;;;;;;;12.03;8.20;;;0.20;99.90;;;0.19;76.71;96726.09;5025637;28;20067;-41
2022/04/02 07:10:55;;;;;;;10.27;8.00;;;0.10;99.90;;;0.27;76.47;96728.97;5026836;28;20046;-41
2022/04/02 07:13:26;;;;;;;14.00;8.90;;;0.20;99.90;;;0.37;76.22;96736.94;5026698;28;20267;-41
2022/04/02 07:15:54;;;;;;;12.03;8.27;;;0.30;99.90;;;0.42;76.65;96734.78;5026095;28;20057;-41
2022/04/02 07:18:25;;;;;;;13.87;9.13;;;0.30;99.90;;;0.52;76.22;96740.13;5026125;28;20049;-41
2022/04/02 07:20:53;;;;;;;14.13;9.07;;;0.50;99.90;;;0.33;75.36;96735.50;5026125;28;20300;-41
2022/04/02 07:23:22;;;;;;;22.20;14.13;;;0.30;99.90;;;0.36;76.45;96754.41;5025852;28;20049;-41
2022/04/02 07:25:55;;;;;;;12.77;9.17;;;0.30;99.90;;;0.41;76.64;96753.22;5026604;28;20525;-42
2022/04/02 07:28:25;;;;;;;10.63;7.60;;;0.30;99.90;;;0.30;76.54;96754.06;5026637;28;20053;-41
2022/04/02 07:30:53;;;;;;;8.97;6.83;;;0.20;99.90;;;0.27;76.04;96763.00;5009194;28;20258;-41
2022/04/02 07:33:24;;;;;;;8.50;5.93;;;0.10;99.90;;;0.10;76.64;96761.69;5008524;28;20060;-41
2022/04/02 07:36:16;;;;;;;8.17;5.30;;;0.10;99.90;;;0.08;76.54;96765.34;5025804;28;20053;-41
2022/04/02 07:39:11;;;;;;;6.80;5.33;;;0.10;99.90;;;-0.09;76.90;96780.56;5026769;28;20049;-41
2022/04/02 07:41:47;;;;;;;8.48;6.20;;;-0.10;99.90;;;-0.17;76.83;96774.25;5011056;28;20065;-42
2022/04/02 07:45:01;;;;;;;12.10;7.20;;;-0.20;99.90;;;-0.16;77.79;96794.22;4993091;28;20071;-42
2022/04/02 07:47:36;;;;;;;8.68;6.82;;;-0.10;99.90;;;-0.12;77.24;96788.63;5024596;28;20064;-42
2022/04/02 07:50:13;;;;;;;10.43;7.83;;;-0.10;99.90;;;-0.07;77.04;96796.16;5025230;28;20055;-42
2022/04/02 07:52:49;;;;;;;11.93;8.93;;;-0.10;99.90;;;-0.09;77.34;96795.44;5026699;28;20053;-42
2022/04/02 07:55:20;;;;;;;9.17;6.93;;;-0.10;99.90;;;-0.10;77.59;96797.19;5024372;28;20057;-42
2022/04/02 07:57:52;;;;;;;10.15;7.68;;;-0.10;99.90;;;-0.06;76.85;96803.91;5027293;28;20310;-43
2022/04/02 08:00:26;;;;;;;8.67;5.90;;;0.00;99.90;;;-0.05;76.57;96808.16;5036755;28;20083;-44
2022/04/02 08:02:54;;;;;;;9.38;7.00;;;0.00;99.90;;;-0.12;76.68;96813.97;5040747;28;20063;-43
2022/04/02 08:05:24;;;;;;;11.77;7.10;;;-0.10;99.90;;;-0.18;77.07;96810.03;5037961;28;20057;-44
2022/04/02 08:08:06;;;;;;;9.20;6.67;;;-0.20;99.90;;;-0.23;76.87;96815.63;5020687;28;20053;-43
2022/04/02 08:10:39;;;;;;;11.80;7.10;;;-0.20;99.90;;;-0.25;77.66;96816.69;5005853;28;20049;-43
2022/04/02 08:13:08;;;;;;;10.13;6.93;;;-0.20;99.90;;;-0.10;77.36;96812.91;5038534;28;20049;-44
2022/04/02 08:15:39;;;;;;;12.87;7.40;;;-0.10;99.90;;;-0.05;77.47;96826.50;5027865;28;20049;-42
2022/04/02 08:18:14;;;;;;;11.53;6.97;;;0.00;99.90;;;-0.09;76.42;96829.47;5021073;28;20056;-43
2022/04/02 08:20:43;;;;;;;9.37;6.90;;;0.00;99.90;;;-0.23;77.13;96831.31;5030918;28;20057;-43
2022/04/02 08:23:11;;;;;;;10.07;7.40;;;-0.20;99.90;;;-0.22;76.87;96832.97;5027334;28;20381;-43
2022/04/02 08:25:55;;;;;;;13.73;10.17;;;-0.20;99.90;;;-0.23;77.31;96833.94;5027323;28;20057;-44
2022/04/02 08:28:41;;;;;;;16.67;9.32;;;-0.20;99.90;;;-0.18;76.56;96848.44;5025380;28;20045;-44
2022/04/02 08:31:24;;;;;;;15.97;9.07;;;-0.20;99.90;;;-0.13;76.74;96851.56;5027790;28;20067;-46
2022/04/02 08:33:59;;;;;;;14.47;7.97;;;-0.10;99.90;;;-0.09;76.87;96851.22;5025448;28;20057;-43
2022/04/02 08:36:43;;;;;;;15.63;8.47;;;-0.10;99.90;;;0.07;77.46;96855.31;5027843;28;20247;-46
2022/04/02 08:39:25;;;;;;;;;;;0.10;99.90;;;-0.08;76.49;96857.28;5026679;28;20060;-43
2022/04/02 08:42:45;;;;;;;9.60;7.33;;;0.00;99.90;;;-0.29;76.66;96868.41;5028305;28;19925;-44
2022/04/02 08:45:15;;;;;;;11.43;7.63;;;-0.30;99.90;;;-0.20;77.06;96866.88;5032189;28;20041;-41
2022/04/02 08:48:23;;;;;;;13.20;7.77;;;-0.20;99.90;;;-0.24;77.08;96863.66;5039268;28;20339;-39
2022/04/02 08:51:15;;;;;;;12.67;8.90;;;-0.20;99.90;;;-0.18;77.06;96882.47;5041296;28;20063;-40
2022/04/02 08:54:23;;;;;;;11.57;8.77;;;-0.20;99.90;;;-0.20;77.12;96882.56;5040360;28;20048;-40
2022/04/02 08:57:20;;;;;;;13.10;8.33;;;-0.10;99.90;;;-0.07;76.99;96885.13;5039365;28;20053;-41
2022/04/02 09:00:08;;;;;;;15.57;9.00;;;0.00;99.90;;;-0.14;77.29;96892.59;5038973;28;20055;-40
2022/04/02 09:03:26;;;;;;;13.27;9.20;;;-0.10;99.90;;;-0.03;77.79;96895.25;5036961;28;20053;-41
2022/04/02 09:06:28;;;;;;;12.10;8.37;;;0.00;99.90;;;-0.05;77.42;96897.13;5037171;28;20041;-41
2022/04/02 09:09:15;;;;;;;11.30;8.27;;;0.10;99.90;;;0.01;77.34;96900.25;5039628;28;20054;-41
2022/04/02 09:12:19;;;;;;;12.60;9.47;;;0.00;99.90;;;0.13;76.45;96901.97;5037466;28;20045;-40
2022/04/02 09:15:05;;;;;;;9.43;6.07;;;0.20;99.90;;;0.18;76.23;96908.53;5039907;28;20053;-40
2022/04/02 09:17:57;;;;;;;13.10;8.97;;;0.30;99.90;;;0.30;76.86;96909.38;5038612;28;20049;-41
2022/04/02 09:20:56;;;;;;;12.23;7.67;;;0.30;99.90;;;0.18;76.08;96921.59;5023664;28;20344;-41
2022/04/02 09:24:03;;;;;;;14.40;8.77;;;0.30;99.90;;;0.14;76.44;96929.81;5023859;28;20046;-41
2022/04/02 09:27:25;;;;;;;11.33;8.60;;;0.30;99.90;;;0.28;76.48;96923.53;5023571;28;20056;-40
2022/04/02 09:30:13;;;;;;;15.40;10.50;;;0.30;99.90;;;0.41;76.95;96926.06;5018230;28;20269;-40
2022/04/02 09:33:17;;;;;;;16.47;11.27;;;0.40;99.90;;;0.41;76.40;96933.91;5015881;28;20037;-39
2022/04/02 09:36:06;;;;;;;13.85;9.55;;;0.60;99.90;;;0.41;76.58;96931.28;5012963;28;20058;-40
2022/04/02 09:38:57;;;;;;;12.93;8.43;;;0.50;99.90;;;0.40;76.53;96927.84;5011714;28;20227;-39
2022/04/02 09:41:56;;;;;;;12.70;9.10;;;0.50;99.90;;;0.32;75.84;96935.47;5010965;28;20060;-40
2022/04/02 09:44:56;;;;;;;12.03;7.50;;;0.30;99.90;;;0.31;75.91;96941.63;5008514;28;20045;-40
2022/04/02 09:47:56;;;;;;;12.67;9.03;;;0.30;99.90;;;0.47;75.88;96939.53;5012314;28;20441;-39
2022/04/02 09:50:29;;;;;;;11.77;7.63;;;0.50;99.90;;;0.55;76.46;96938.97;5008870;28;20054;-39
2022/04/02 09:53:04;;;;;;;12.83;8.07;;;0.60;99.90;;;0.44;76.45;96945.00;5009786;28;20067;-41
2022/04/02 09:56:16;;;;;;;10.83;7.87;;;0.50;99.90;;;0.40;75.81;96946.19;5008521;28;20050;-38
2022/04/02 09:58:59;;;;;;;12.37;8.50;;;0.40;99.90;;;0.38;76.74;96958.56;5008971;28;20059;-39
2022/04/02 10:01:39;;;;;;;14.90;11.07;;;0.50;99.90;;;0.35;76.58;96953.53;5008152;28;20053;-39
2022/04/02 10:04:28;;;;;;;14.57;9.63;;;0.40;99.90;;;0.33;76.23;96955.44;5006062;28;20041;-39
2022/04/02 10:06:58;;;;;;;12.20;9.00;;;0.30;99.90;;;0.43;76.42;96966.06;5009422;28;20054;-38
2022/04/02 10:09:34;;;;;;;13.23;8.67;;;0.50;99.90;;;0.47;75.99;96960.50;5007821;28;20244;-39
2022/04/02 10:12:03;;;;;;;15.03;11.80;;;0.60;99.90;;;0.49;76.34;96963.84;5008776;28;20383;-38
2022/04/02 10:14:34;;;;;;;16.70;11.30;;;0.60;99.90;;;0.56;75.92;96964.19;5009780;28;20053;-38
2022/04/02 10:17:06;;;;;;;12.97;10.03;;;0.70;99.90;;;0.36;75.62;96966.53;5009434;28;20053;-39
2022/04/02 10:19:41;;;;;;;12.60;8.47;;;0.50;99.90;;;0.37;75.83;96965.59;5008955;28;20348;-39
2022/04/02 10:22:12;;;;;;;12.20;8.80;;;0.40;99.90;;;0.36;76.60;96961.28;5007678;28;20392;-39
2022/04/02 10:24:50;;;;;;;13.27;8.47;;;0.30;99.90;;;0.21;75.80;96966.84;5008579;28;20068;-39
2022/04/02 10:27:34;;;;;;;12.20;8.50;;;0.20;99.90;;;0.14;75.91;96969.09;5006345;28;20050;-38
2022/04/02 10:30:15;;;;;;;11.98;8.15;;;0.10;99.90;;;0.27;76.45;96971.59;5007913;28;20046;-38
2022/04/02 10:33:50;;;;;;;11.37;7.63;;;0.30;99.90;;;0.23;76.39;96978.03;5008714;28;20054;-39
2022/04/02 10:35:54;;;;;;;11.13;7.70;;;0.30;99.90;;;0.24;76.16;96969.25;5011871;28;20256;-39
2022/04/02 10:38:38;;;;;;;14.03;9.10;;;0.30;99.90;;;0.33;77.02;96974.63;5006463;28;20056;-39
2022/04/02 10:41:17;;;;;;;15.50;9.27;;;0.40;99.90;;;0.48;75.85;96982.28;5006124;28;20059;-39
2022/04/02 10:44:02;;;;;;;11.80;8.20;;;0.60;99.90;;;0.36;75.76;96977.00;5007476;28;20249;-39
2022/04/02 10:46:32;;;;;;;12.20;8.43;;;0.50;99.90;;;0.41;75.85;96989.78;5006547;28;20058;-39
2022/04/02 10:49:07;;;;;;;10.70;7.60;;;0.40;99.90;;;0.36;76.05;96986.66;5006910;28;20432;-39
2022/04/02 10:51:42;;;;;;;12.33;8.83;;;0.40;99.90;;;0.40;75.81;96993.31;5006112;28;20052;-39
2022/04/02 10:54:13;;;;;;;14.70;8.97;;;0.40;99.90;;;0.53;75.96;96988.84;5005905;28;20045;-39
2022/04/02 10:56:48;;;;;;;13.10;9.17;;;0.60;99.90;;;0.52;76.56;96989.78;5006892;28;20076;-39
2022/04/02 10:59:21;;;;;;;11.30;8.40;;;0.50;99.90;;;0.35;74.99;96988.44;5007335;28;20083;-41
2022/04/02 11:01:55;;;;;;;12.93;8.30;;;0.40;99.90;;;0.34;76.09;96994.59;5006747;28;20378;-38